Time;durP1;ratioP1;P1;durP2;ratioP2;P2;SDS_P1;SDS_P2;PMS_P1;PMS_P2;Temp;Humidity;BMP_temperature;BMP_pressure;BME280_temperature;BME280_humidity;BME280_pressure;Samples;Min_cycle;Max_cycle;Signal;HPM_P1;HPM_P2
2021/10/31 00:02:34;;;;;;;50.60;46.77;;;;;;;7.82;100.00;100293.55;1914552;74;39648;-71
2021/10/31 00:07:59;;;;;;;46.73;43.40;;;;;;;7.96;100.00;100291.02;1904622;74;86278;-70
2021/10/31 00:13:23;;;;;;;45.73;42.60;;;;;;;7.98;100.00;100284.09;1880607;74;39524;-71
2021/10/31 00:18:47;;;;;;;46.07;42.67;;;;;;;7.94;100.00;100286.31;1901845;75;86082;-71
2021/10/31 00:24:10;;;;;;;45.60;42.40;;;;;;;7.96;100.00;100283.53;1885498;74;86745;-70
2021/10/31 00:29:35;;;;;;;47.97;44.77;;;;;;;7.75;100.00;100286.91;1914439;73;39611;-71
2021/10/31 00:35:00;;;;;;;45.40;42.20;;;;;;;7.73;100.00;100275.33;1890620;74;86880;-71
2021/10/31 00:40:24;;;;;;;46.67;43.40;;;;;;;7.71;100.00;100274.77;1916333;74;40009;-70
2021/10/31 00:45:49;;;;;;;44.93;41.57;;;;;;;7.90;100.00;100275.55;1901600;74;86459;-70
2021/10/31 00:51:13;;;;;;;44.70;41.50;;;;;;;7.79;100.00;100269.20;1918943;74;39397;-71
2021/10/31 00:56:39;;;;;;;45.93;42.83;;;;;;;7.93;100.00;100261.14;1913668;74;39696;-70
2021/10/31 01:02:09;;;;;;;46.07;42.97;;;;;;;7.86;100.00;100265.61;1954387;70;86798;-69
2021/10/31 01:08:00;;;;;;;43.47;40.47;;;;;;;8.10;100.00;100256.94;1915116;74;39490;-70
2021/10/31 01:13:44;;;;;;;45.57;42.60;;;;;;;8.17;100.00;100242.81;1915790;74;39581;-71
2021/10/31 01:16:20;;;;;;;43.50;40.80;;;;;;;8.23;100.00;100247.19;1862713;76;934676;-70
2021/10/31 01:25:06;;;;;;;41.70;39.10;;;;;;;8.08;100.00;100224.59;1905774;74;85636;-71
2021/10/31 01:30:50;;;;;;;41.83;39.13;;;;;;;8.24;100.00;100202.65;1901756;75;86188;-70
2021/10/31 01:33:25;;;;;;;42.57;39.77;;;;;;;8.29;100.00;100206.50;1845607;74;936592;-70
2021/10/31 01:38:57;;;;;;;42.23;39.43;;;;;;;8.36;100.00;100190.42;1905634;74;86473;-72
2021/10/31 01:41:33;;;;;;;42.10;39.27;;;;;;;8.32;100.00;100199.03;1846430;74;936648;-71
2021/10/31 01:44:06;;;;;;;42.20;39.60;;;;;;;8.23;100.00;100195.45;1823923;78;938655;-71
2021/10/31 01:49:34;;;;;;;43.00;40.37;;;;;;;8.36;100.00;100171.05;1915472;74;39784;-71
2021/10/31 01:55:03;;;;;;;41.07;38.27;;;;;;;8.71;100.00;100163.88;1904462;74;86196;-69
2021/10/31 02:00:31;;;;;;;43.67;40.67;;;;;;;8.92;100.00;100159.81;1877889;74;39864;-70
2021/10/31 02:05:58;;;;;;;44.20;41.00;;;;;;;8.97;100.00;100152.84;1892045;74;86230;-70
2021/10/31 02:11:24;;;;;;;42.53;39.83;;;;;;;8.78;100.00;100131.13;1916542;74;39544;-71
2021/10/31 02:16:48;;;;;;;43.67;40.70;;;;;;;8.86;100.00;100120.80;1902363;73;86246;-71
2021/10/31 02:25:05;;;;;;;40.07;37.60;;;;;;;9.08;100.00;100111.44;1915192;75;86657;-70
2021/10/31 02:27:41;;;;;;;40.60;38.00;;;;;;;9.08;100.00;100110.06;1819128;77;936716;-70
2021/10/31 02:30:11;;;;;;;40.20;37.50;;;;;;;9.09;100.00;100109.50;1801306;78;936920;-71
2021/10/31 02:32:42;;;;;;;41.43;38.67;;;;;;;9.20;100.00;100104.10;1769887;78;938675;-69
2021/10/31 02:35:13;;;;;;;41.90;39.10;;;;;;;9.33;100.00;100095.64;1788682;78;936843;-69
2021/10/31 02:37:44;;;;;;;42.27;39.40;;;;;;;9.35;100.00;100085.92;1820752;76;938833;-69
2021/10/31 02:40:17;;;;;;;42.13;39.40;;;;;;;9.57;100.00;100079.83;1804669;78;936949;-70
2021/10/31 02:42:47;;;;;;;43.17;40.47;;;;;;;9.59;100.00;100077.02;1804764;78;938745;-69
2021/10/31 02:45:18;;;;;;;41.53;38.53;;;;;;;9.53;100.00;100065.75;1804831;78;936866;-69
2021/10/31 02:50:46;;;;;;;43.70;40.83;;;;;;;9.78;100.00;100049.88;1912665;74;39939;-71
2021/10/31 02:56:25;;;;;;;44.23;41.13;;;;;;;9.88;100.00;100019.22;1877526;74;39754;-71
2021/10/31 03:01:52;;;;;;;43.07;40.13;;;;;;;9.91;100.00;100008.34;1901635;73;86176;-71
2021/10/31 03:07:17;;;;;;;43.20;40.00;;;;;;;10.11;100.00;100001.62;1874188;74;39414;-71
2021/10/31 03:12:42;;;;;;;43.77;40.50;;;;;;;10.11;100.00;99993.87;1912937;73;40321;-71
2021/10/31 03:18:07;;;;;;;42.20;39.17;;;;;;;10.17;100.00;99989.92;1902278;74;86279;-70
2021/10/31 03:23:32;;;;;;;42.70;39.90;;;;;;;10.12;100.00;99968.60;1871804;74;39696;-70
2021/10/31 03:28:54;;;;;;;43.63;40.40;;;;;;;10.20;100.00;99960.17;1892716;74;85586;-70
2021/10/31 03:34:19;;;;;;;44.00;41.00;;;;;;;10.20;100.00;99938.80;1917999;74;39429;-71
2021/10/31 03:39:43;;;;;;;43.37;40.37;;;;;;;10.15;100.00;99921.38;1884608;74;39794;-71
2021/10/31 03:45:10;;;;;;;44.03;41.33;;;;;;;10.20;100.00;99908.83;1906085;74;86667;-70
2021/10/31 03:50:41;;;;;;;44.73;41.40;;;;;;;10.38;100.00;99898.22;1913246;73;39650;-71
2021/10/31 03:56:05;;;;;;;45.00;41.90;;;;;;;10.44;100.00;99889.48;1784890;79;86427;-71
2021/10/31 04:01:32;;;;;;;42.60;39.50;;;;;;;10.50;100.00;99883.27;1915337;74;39638;-71
2021/10/31 04:06:55;;;;;;;42.57;39.63;;;;;;;10.77;100.00;99893.55;1907087;74;86224;-71
2021/10/31 04:12:20;;;;;;;43.20;40.23;;;;;;;10.91;100.00;99897.15;1917021;74;39701;-71
2021/10/31 04:17:44;;;;;;;42.50;39.37;;;;;;;11.12;100.00;99908.07;1912705;74;39624;-70
2021/10/31 04:23:09;;;;;;;44.67;41.30;;;;;;;11.16;100.00;99849.90;1849807;77;86374;-71
2021/10/31 04:28:32;;;;;;;45.13;41.87;;;;;;;11.20;100.00;99837.84;1887760;74;39562;-71
2021/10/31 04:33:56;;;;;;;42.00;38.77;;;;;;;11.33;100.00;99817.52;1892033;74;86807;-71
2021/10/31 04:39:20;;;;;;;43.33;40.23;;;;;;;11.46;100.00;99796.34;1917077;74;39538;-70
2021/10/31 04:44:45;;;;;;;43.33;39.70;;;;;;;11.57;100.00;99767.13;1872065;74;86014;-71
2021/10/31 04:50:09;;;;;;;42.50;39.50;;;;;;;11.60;100.00;99753.14;1877255;76;86447;-71
2021/10/31 04:55:33;;;;;;;41.57;38.50;;;;;;;11.72;100.00;99721.44;1914611;74;39595;-70
2021/10/31 05:01:06;;;;;;;42.07;38.93;;;;;;;11.77;100.00;99731.83;1783572;78;86350;-71
2021/10/31 05:06:30;;;;;;;43.50;40.13;;;;;;;11.83;100.00;99730.56;1915288;73;39685;-71
2021/10/31 05:11:55;;;;;;;42.87;39.67;;;;;;;11.94;100.00;99728.30;1903666;74;86834;-70
2021/10/31 05:17:20;;;;;;;42.10;39.17;;;;;;;11.95;100.00;99712.42;1890675;74;39509;-70
2021/10/31 05:22:45;;;;;;;43.37;40.27;;;;;;;12.00;100.00;99694.19;1896853;75;86647;-71
2021/10/31 05:28:08;;;;;;;41.50;38.50;;;;;;;12.03;100.00;99669.31;1889594;74;86689;-70
2021/10/31 05:33:32;;;;;;;44.60;41.17;;;;;;;12.15;100.00;99645.05;1914967;74;39848;-70
2021/10/31 05:38:56;;;;;;;42.23;38.93;;;;;;;12.31;100.00;99652.60;1891846;74;85793;-71
2021/10/31 05:44:20;;;;;;;41.00;37.90;;;;;;;12.41;100.00;99649.26;1916980;74;39624;-71
2021/10/31 05:49:45;;;;;;;41.50;38.37;;;;;;;12.44;100.00;99599.86;1870236;76;86528;-71
2021/10/31 05:55:12;;;;;;;43.03;39.33;;;;;;;12.48;100.00;99581.34;1798577;77;86663;-71
2021/10/31 06:00:36;;;;;;;41.93;38.73;;;;;;;12.53;100.00;99566.69;1914213;74;39658;-71
2021/10/31 06:06:01;;;;;;;43.20;39.90;;;;;;;12.55;100.00;99554.62;1900808;74;86321;-70
2021/10/31 06:11:25;;;;;;;43.13;40.00;;;;;;;12.66;100.00;99540.59;1916143;74;39635;-71
2021/10/31 06:16:51;;;;;;;45.97;42.33;;;;;;;12.81;100.00;99514.74;1901759;73;85382;-70
2021/10/31 06:22:15;;;;;;;44.77;41.17;;;;;;;12.94;100.00;99517.90;1917480;74;39601;-71
2021/10/31 06:27:39;;;;;;;43.90;40.80;;;;;;;13.00;100.00;99512.39;1868549;74;39576;-70
2021/10/31 06:33:06;;;;;;;45.40;41.67;;;;;;;13.06;100.00;99484.56;1902358;74;86409;-70
2021/10/31 06:38:30;;;;;;;45.87;42.53;;;;;;;12.96;100.00;99477.41;1915245;74;39712;-71
2021/10/31 06:43:54;;;;;;;45.63;41.93;;;;;;;12.94;100.00;99453.80;1891400;74;86006;-70
2021/10/31 06:49:21;;;;;;;43.50;40.50;;;;;;;12.85;100.00;99436.30;1873441;74;39605;-70
2021/10/31 06:54:46;;;;;;;42.27;39.37;;;;;;;12.77;100.00;99425.44;1836934;76;86420;-71
2021/10/31 07:00:12;;;;;;;41.57;38.70;;;;;;;12.78;100.00;99411.19;1885841;74;86381;-70
2021/10/31 07:05:37;;;;;;;42.17;39.07;;;;;;;12.76;100.00;99396.75;1914177;74;39655;-71
2021/10/31 07:11:02;;;;;;;41.70;38.90;;;;;;;12.77;100.00;99390.61;1825085;76;86896;-71
2021/10/31 07:16:26;;;;;;;41.47;38.53;;;;;;;12.69;100.00;99389.50;1916052;74;39519;-71
2021/10/31 07:21:50;;;;;;;41.03;38.30;;;;;;;12.63;100.00;99374.12;1913261;73;86080;-70
2021/10/31 07:27:13;;;;;;;39.63;36.93;;;;;;;12.64;100.00;99359.63;1892697;74;39673;-70
2021/10/31 07:32:39;;;;;;;39.30;36.80;;;;;;;12.70;100.00;99352.14;1913977;74;39665;-68
2021/10/31 07:38:04;;;;;;;38.20;35.67;;;;;;;12.68;100.00;99346.08;1835819;77;86929;-70
2021/10/31 07:43:29;;;;;;;38.33;35.67;;;;;;;12.75;100.00;99328.25;1872906;74;39688;-69
2021/10/31 07:48:54;;;;;;;39.07;36.47;;;;;;;12.79;100.00;99326.42;1903976;74;86478;-70
2021/10/31 07:54:22;;;;;;;37.77;35.37;;;;;;;12.89;100.00;99311.28;1891695;74;39512;-69
2021/10/31 07:59:44;;;;;;;36.37;34.10;;;;;;;12.97;100.00;99268.61;1912765;74;39797;-69
2021/10/31 08:05:09;;;;;;;34.90;32.50;;;;;;;13.03;100.00;99255.29;1823771;76;86660;-70
2021/10/31 08:10:33;;;;;;;35.73;33.10;;;;;;;13.06;100.00;99242.88;1914831;73;39546;-70
2021/10/31 08:15:58;;;;;;;37.53;34.83;;;;;;;13.12;100.00;99205.32;1891212;74;86652;-68
2021/10/31 08:21:26;;;;;;;35.40;33.00;;;;;;;13.15;100.00;99150.27;1870556;74;39711;-69
2021/10/31 08:26:51;;;;;;;38.00;35.50;;;;;;;13.16;100.00;99060.48;1901652;74;86425;-69
2021/10/31 08:32:38;;;;;;;36.43;34.17;;;;;;;13.21;100.00;99061.09;1986509;71;39629;-69
2021/10/31 08:38:04;;;;;;;37.37;34.80;;;;;;;13.29;100.00;99045.98;1763959;79;86394;-69
2021/10/31 08:43:29;;;;;;;38.33;35.23;;;;;;;13.36;100.00;99021.93;1915480;74;39846;-69
2021/10/31 08:48:53;;;;;;;39.67;36.70;;;;;;;13.41;100.00;98999.97;1931015;72;86488;-70
2021/10/31 08:54:18;;;;;;;39.53;36.90;;;;;;;13.46;100.00;98991.38;1918128;74;39821;-69
2021/10/31 08:59:43;;;;;;;43.47;40.27;;;;;;;13.54;100.00;98985.67;1912970;74;39429;-69
2021/10/31 09:05:08;;;;;;;44.43;40.93;;;;;;;13.57;100.00;98968.23;1903609;74;86663;-70
2021/10/31 09:10:33;;;;;;;43.90;40.33;;;;;;;13.50;100.00;98938.73;1914789;74;39792;-70
2021/10/31 09:15:57;;;;;;;45.23;41.53;;;;;;;13.53;100.00;98924.66;1890902;74;86217;-70
2021/10/31 09:21:23;;;;;;;46.25;42.90;;;;;;;13.62;100.00;98910.81;1899481;74;39603;-71
2021/10/31 09:26:46;;;;;;;44.77;41.20;;;;;;;13.68;100.00;98905.81;1901724;73;86306;-70
2021/10/31 09:32:10;;;;;;;43.17;39.77;;;;;;;13.77;100.00;98907.88;1889310;74;86113;-70
2021/10/31 09:37:35;;;;;;;41.33;38.23;;;;;;;13.82;100.00;98880.31;1875486;74;39795;-71
2021/10/31 09:43:02;;;;;;;41.97;38.57;;;;;;;13.92;100.00;98901.53;1889901;74;86210;-71
2021/10/31 09:48:32;;;;;;;44.57;40.53;;;;;;;14.03;100.00;98936.74;1915755;74;39606;-72
2021/10/31 09:53:58;;;;;;;42.57;38.93;;;;;;;14.05;100.00;99002.78;1891414;74;86569;-70
2021/10/31 09:59:25;;;;;;;41.20;37.73;;;;;;;14.07;100.00;99001.86;1916825;74;39607;-70
2021/10/31 10:04:53;;;;;;;42.47;38.87;;;;;;;14.12;100.00;99005.78;1901562;73;86742;-70
2021/10/31 10:10:17;;;;;;;42.20;39.10;;;;;;;14.17;100.00;99032.06;1879213;74;39488;-70
2021/10/31 10:15:42;;;;;;;42.47;39.30;;;;;;;14.17;100.00;99058.59;1913301;74;39505;-71
2021/10/31 10:24:08;;;;;;;42.73;39.03;;;;;;;14.17;100.00;99077.31;1915000;75;86409;-71
2021/10/31 10:26:41;;;;;;;42.38;39.08;;;;;;;14.11;100.00;99080.38;1819303;77;936755;-70
2021/10/31 10:29:19;;;;;;;41.07;37.87;;;;;;;14.11;100.00;99088.75;1796619;77;936834;-71
2021/10/31 10:31:52;;;;;;;42.73;39.23;;;;;;;13.99;100.00;99087.34;1806520;78;938714;-71
2021/10/31 10:34:44;;;;;;;43.70;39.97;;;;;;;14.01;100.00;99085.61;1794683;78;938914;-71
2021/10/31 10:37:17;;;;;;;41.20;37.80;;;;;;;13.99;100.00;99094.32;1797004;78;936968;-71
2021/10/31 10:39:50;;;;;;;44.60;41.10;;;;;;;14.00;100.00;99089.55;1791455;78;938749;-71
2021/10/31 10:42:22;;;;;;;45.80;42.13;;;;;;;14.02;100.00;99103.99;1817979;77;938718;-70
2021/10/31 10:44:56;;;;;;;46.85;43.40;;;;;;;14.04;100.00;99099.67;1798246;78;938764;-70
2021/10/31 10:47:27;;;;;;;46.05;42.78;;;;;;;13.95;100.00;99110.14;1802580;78;938756;-71
2021/10/31 10:50:00;;;;;;;47.77;44.37;;;;;;;13.92;100.00;99108.06;1814412;78;938768;-70
2021/10/31 10:52:34;;;;;;;50.07;46.63;;;;;;;13.88;100.00;99107.71;1802490;78;937713;-69
2021/10/31 10:58:03;;;;;;;54.80;51.20;;;;;;;13.89;100.00;99092.02;1889974;74;86180;-71
2021/10/31 11:03:32;;;;;;;51.03;47.57;;;;;;;13.99;100.00;99106.09;1915413;74;39584;-71
2021/10/31 11:09:14;;;;;;;51.00;47.80;;;;;;;14.11;100.00;99100.49;1890853;74;86353;-71
2021/10/31 11:14:40;;;;;;;56.83;52.67;;;;;;;14.12;100.00;99102.91;1868491;74;39755;-70
2021/10/31 11:22:56;;;;;;;46.07;42.87;;;;;;;14.18;100.00;99099.89;1889226;75;86334;-71
2021/10/31 11:31:10;;;;;;;49.27;46.13;;;;;;;14.22;100.00;99100.23;2008737;69;39641;-70
2021/10/31 11:33:40;;;;;;;49.37;45.97;;;;;;;14.24;100.00;99102.68;1923522;72;936701;-70
2021/10/31 11:36:11;;;;;;;46.83;43.83;;;;;;;14.19;100.00;99107.11;1862655;76;936909;-70
2021/10/31 11:38:43;;;;;;;47.13;44.10;;;;;;;14.14;100.00;99098.39;1882770;74;938890;-70
2021/10/31 11:41:15;;;;;;;47.00;43.80;;;;;;;14.12;100.00;99088.14;1902378;73;936914;-71
2021/10/31 11:43:53;;;;;;;46.60;43.20;;;;;;;14.14;100.00;99093.62;1904185;74;938735;-71
2021/10/31 11:46:37;;;;;;;46.23;43.13;;;;;;;14.30;100.00;99090.91;1891814;74;937492;-70
2021/10/31 11:49:08;;;;;;;47.00;44.03;;;;;;;14.22;100.00;99082.08;1904155;74;936853;-69
2021/10/31 11:51:44;;;;;;;47.03;43.97;;;;;;;14.30;100.00;99073.33;1891883;74;938825;-69
2021/10/31 11:54:15;;;;;;;46.67;43.67;;;;;;;14.47;100.00;99074.47;1904146;74;936892;-69
2021/10/31 11:56:51;;;;;;;47.90;44.87;;;;;;;14.45;100.00;99063.67;1904114;74;938800;-71
2021/10/31 11:59:23;;;;;;;44.33;40.90;;;;;;;14.46;100.00;99064.49;1891741;74;938802;-69
2021/10/31 12:01:56;;;;;;;43.53;40.53;;;;;;;14.37;100.00;99060.44;1904196;74;938655;-71
2021/10/31 12:08:05;;;;;;;42.07;38.77;;;;;;;14.16;100.00;99038.84;1902566;74;938724;-71
2021/10/31 12:10:38;;;;;;;46.33;42.75;;;;;;;14.07;100.00;99043.16;1891761;74;938697;-70
2021/10/31 12:13:17;;;;;;;47.00;43.67;;;;;;;14.03;100.00;99035.23;1904227;74;936779;-69
2021/10/31 12:16:03;;;;;;;44.07;40.80;;;;;;;14.06;100.00;99039.31;1904142;74;938901;-71
2021/10/31 12:18:48;;;;;;;44.60;41.00;;;;;;;14.10;100.00;99043.84;1891835;73;938926;-72
2021/10/31 12:24:21;;;;;;;42.60;39.30;;;;;;;14.57;100.00;99027.89;1918358;74;39507;-72
2021/10/31 12:30:44;;;;;;;40.13;37.13;;;;;;;14.35;100.00;99008.84;1901836;75;86072;-72
2021/10/31 12:36:17;;;;;;;42.50;39.60;;;;;;;14.62;100.00;99000.27;1782287;79;86552;-69
2021/10/31 12:41:41;;;;;;;34.47;31.60;;;;;;;15.02;100.00;98986.97;1913308;74;39546;-69
2021/10/31 12:47:12;;;;;;;35.63;33.37;;;;;;;15.02;100.00;98974.39;1906337;74;86498;-69
2021/10/31 12:52:41;;;;;;;37.37;34.23;;;;;;;15.00;100.00;98971.16;1886570;74;39521;-70
2021/10/31 12:58:09;;;;;;;33.43;30.97;;;;;;;15.09;100.00;98956.41;1902400;74;86438;-69
2021/10/31 13:03:34;;;;;;;32.27;29.43;;;;;;;15.13;100.00;98950.33;1914610;74;39466;-71
2021/10/31 13:08:59;;;;;;;34.27;31.83;;;;;;;14.95;100.00;98932.28;1903342;74;87012;-71
2021/10/31 13:14:33;;;;;;;35.93;33.13;;;;;;;14.80;100.00;98935.31;1915783;74;39494;-72
2021/10/31 13:23:02;;;;;;;31.80;29.50;;;;;;;14.66;100.00;98946.70;1907337;74;86605;-72
2021/10/31 13:28:32;;;;;;;38.67;35.70;;;;;;;14.59;100.00;98950.91;1915598;74;39731;-71
2021/10/31 13:34:01;;;;;;;33.20;30.77;;;;;;;14.47;100.00;98954.36;1891059;74;86692;-69
2021/10/31 13:39:28;;;;;;;40.53;37.50;;;;;;;14.64;100.00;98955.42;1916046;73;39551;-71
2021/10/31 13:44:52;;;;;;;32.07;29.50;;;;;;;15.05;100.00;98968.09;1901947;73;86497;-68
2021/10/31 13:50:37;;;;;;;28.37;26.43;;;;;;;15.03;100.00;98978.81;1914261;74;39677;-73
2021/10/31 13:56:26;;;;;;;29.80;27.70;;;;;;;15.04;100.00;98972.06;1892138;74;86075;-72
2021/10/31 14:01:50;;;;;;;27.00;25.10;;;;;;;15.16;100.00;98991.53;1901734;73;86852;-68
2021/10/31 14:07:18;;;;;;;27.00;25.17;;;;;;;15.09;100.00;98996.14;1879884;74;39580;-72
2021/10/31 14:12:44;;;;;;;28.97;27.13;;;;;;;15.25;100.00;98994.97;1913231;74;39739;-68
2021/10/31 14:18:11;;;;;;;23.20;21.60;;;;;;;15.07;100.00;98992.88;1866603;76;86624;-71
2021/10/31 14:23:36;;;;;;;21.60;20.40;;;;;;;15.07;100.00;99000.69;1914246;74;39494;-71
2021/10/31 14:29:00;;;;;;;24.30;22.90;;;;;;;14.51;100.00;99023.13;1903261;74;86595;-72
2021/10/31 14:34:30;;;;;;;28.07;26.47;;;;;;;13.94;100.00;99019.23;1915293;73;39507;-72
2021/10/31 14:40:23;;;;;;;27.57;25.77;;;;;;;14.25;100.00;99019.93;1825140;78;86445;-70
2021/10/31 14:46:15;;;;;;;26.47;24.93;;;;;;;14.25;100.00;99038.69;1785026;79;86803;-70
2021/10/31 14:51:43;;;;;;;27.63;25.60;;;;;;;14.19;100.00;99050.69;1913358;74;39686;-69
2021/10/31 14:57:15;;;;;;;30.20;27.63;;;;;;;14.23;100.00;99054.39;1919189;74;39625;-71
2021/10/31 15:02:42;;;;;;;31.53;29.23;;;;;;;14.28;100.00;99057.52;1913628;74;39555;-70
2021/10/31 15:08:07;;;;;;;29.50;27.70;;;;;;;14.24;100.00;99056.03;1902156;74;86396;-72
2021/10/31 15:13:32;;;;;;;32.43;30.40;;;;;;;14.27;100.00;99062.30;1915134;74;39542;-72
2021/10/31 15:18:57;;;;;;;32.47;30.30;;;;;;;14.16;100.00;99055.59;1905293;74;86495;-72
2021/10/31 15:24:22;;;;;;;33.47;31.03;;;;;;;14.10;100.00;99070.94;1916874;74;39470;-69
2021/10/31 15:29:50;;;;;;;36.50;33.80;;;;;;;14.09;100.00;99076.28;1901836;74;86456;-68
2021/10/31 15:35:14;;;;;;;37.37;34.40;;;;;;;13.97;100.00;99067.94;1918903;74;39415;-68
2021/10/31 15:40:39;;;;;;;39.40;36.50;;;;;;;13.91;100.00;99072.94;1868605;74;39573;-70
2021/10/31 15:46:04;;;;;;;41.17;38.57;;;;;;;13.89;100.00;99085.63;1947642;71;86158;-71
2021/10/31 15:51:48;;;;;;;38.90;35.93;;;;;;;13.77;100.00;99108.78;1937569;73;86528;-70
2021/10/31 15:57:13;;;;;;;36.80;34.30;;;;;;;13.74;100.00;99105.84;1919101;74;39598;-72
2021/10/31 16:02:47;;;;;;;36.57;34.13;;;;;;;13.51;100.00;99108.30;1913830;74;39546;-70
2021/10/31 16:08:06;;;;;;;37.77;35.37;;;;;;;13.58;100.00;99110.73;1800561;78;86858;-72
2021/10/31 16:13:32;;;;;;;36.60;33.73;;;;;;;13.39;100.00;99118.83;1915248;74;39574;-70
2021/10/31 16:18:57;;;;;;;38.90;36.23;;;;;;;13.47;100.00;99111.55;1904901;74;86653;-71
2021/10/31 16:24:20;;;;;;;39.33;36.70;;;;;;;13.31;100.00;99123.92;1917492;74;39681;-71
2021/10/31 16:29:49;;;;;;;36.90;34.37;;;;;;;13.25;100.00;99123.93;1901620;73;86534;-71
2021/10/31 16:35:14;;;;;;;37.07;34.60;;;;;;;13.28;100.00;99125.20;1918898;74;39720;-71
2021/10/31 16:40:39;;;;;;;39.70;36.93;;;;;;;13.30;100.00;99127.08;1913961;74;39597;-69
2021/10/31 16:46:05;;;;;;;37.17;34.47;;;;;;;13.16;100.00;99130.17;1784926;79;86344;-71
2021/10/31 16:51:30;;;;;;;39.40;35.53;;;;;;;13.03;100.00;99131.27;1915393;74;39502;-68
2021/10/31 16:56:56;;;;;;;37.17;34.37;;;;;;;13.10;100.00;99128.72;1905255;74;86038;-69
2021/10/31 17:02:20;;;;;;;37.77;35.37;;;;;;;12.76;100.00;99126.52;1917326;73;39526;-70
2021/10/31 17:08:09;;;;;;;38.73;36.10;;;;;;;12.74;100.00;99139.98;1912753;74;39599;-70
2021/10/31 17:13:48;;;;;;;38.93;36.23;;;;;;;12.85;100.00;99129.22;1901677;73;86609;-72
2021/10/31 17:19:14;;;;;;;39.37;36.53;;;;;;;12.74;100.00;99134.98;1919074;74;39586;-70
2021/10/31 17:24:37;;;;;;;43.40;40.63;;;;;;;12.68;100.00;99141.91;1914124;74;39509;-71
2021/10/31 17:30:02;;;;;;;39.20;36.40;;;;;;;12.69;100.00;99149.13;1825241;78;86295;-72
2021/10/31 17:35:48;;;;;;;39.90;37.13;;;;;;;12.74;100.00;99139.98;1879915;74;86540;-70
2021/10/31 17:41:13;;;;;;;40.30;37.77;;;;;;;12.73;100.00;99147.28;1919371;74;39857;-71
2021/10/31 17:46:44;;;;;;;37.30;33.87;;;;;;;12.67;100.00;99145.27;1913000;74;39732;-70
2021/10/31 17:52:08;;;;;;;42.37;39.30;;;;;;;12.62;100.00;99153.04;1903637;74;86225;-69
2021/10/31 17:57:39;;;;;;;43.83;40.73;;;;;;;12.48;100.00;99157.48;1913731;74;40381;-66
2021/10/31 18:03:07;;;;;;;43.20;40.30;;;;;;;12.43;100.00;99161.03;1799232;75;85377;-70
2021/10/31 18:08:37;;;;;;;42.90;39.93;;;;;;;12.41;100.00;99147.44;1914378;74;39577;-68
2021/10/31 18:14:02;;;;;;;39.40;36.60;;;;;;;12.49;100.00;99168.87;1777585;79;85581;-70
2021/10/31 18:19:27;;;;;;;43.43;40.47;;;;;;;12.39;100.00;99169.25;1916721;74;39490;-70
2021/10/31 18:24:55;;;;;;;45.60;42.63;;;;;;;12.31;100.00;99167.34;1902069;74;86203;-72
2021/10/31 18:30:18;;;;;;;45.73;42.50;;;;;;;12.31;100.00;99182.66;1918706;74;39422;-69
2021/10/31 18:35:43;;;;;;;38.27;35.60;;;;;;;12.50;100.00;99178.83;1913333;74;39478;-69
2021/10/31 18:41:08;;;;;;;37.23;34.43;;;;;;;12.44;100.00;99188.55;1837116;77;85606;-69
2021/10/31 18:46:32;;;;;;;37.60;34.60;;;;;;;12.40;100.00;99177.85;1869523;74;39483;-70
2021/10/31 18:51:57;;;;;;;40.63;37.77;;;;;;;12.45;100.00;99181.02;1903964;74;86321;-69
2021/10/31 18:57:21;;;;;;;37.67;34.83;;;;;;;12.40;100.00;99179.24;1890813;74;39470;-68
2021/10/31 19:02:47;;;;;;;41.03;38.27;;;;;;;12.34;100.00;99170.84;1902164;75;86169;-69
2021/10/31 19:08:14;;;;;;;44.70;41.87;;;;;;;12.29;100.00;99169.64;1871933;74;86379;-68
2021/10/31 19:13:38;;;;;;;43.73;40.20;;;;;;;12.21;100.00;99165.77;1914288;74;39613;-68
2021/10/31 19:19:04;;;;;;;44.87;41.30;;;;;;;12.15;100.00;99166.31;1751822;80;86498;-69
2021/10/31 19:24:31;;;;;;;46.70;43.10;;;;;;;12.21;100.00;99161.59;1915601;74;39429;-68
2021/10/31 19:29:55;;;;;;;47.07;43.57;;;;;;;12.13;100.00;99161.07;1891601;74;86690;-66
2021/10/31 19:35:20;;;;;;;46.27;42.57;;;;;;;12.01;100.00;99165.16;1917832;74;39546;-68
2021/10/31 19:40:44;;;;;;;48.83;44.93;;;;;;;12.02;100.00;99152.88;1913160;74;39546;-65
2021/10/31 19:46:10;;;;;;;47.13;43.60;;;;;;;12.04;100.00;99172.82;1866322;74;86493;-70
2021/10/31 19:51:41;;;;;;;45.90;42.43;;;;;;;12.10;100.00;99180.41;1913796;74;39483;-67
2021/10/31 19:57:11;;;;;;;43.03;39.60;;;;;;;12.17;100.00;99182.08;1785415;79;85634;-67
2021/10/31 20:02:36;;;;;;;42.67;39.63;;;;;;;12.13;100.00;99185.30;1914770;74;39581;-68
2021/10/31 20:08:01;;;;;;;43.10;40.03;;;;;;;12.11;100.00;99182.84;1903355;74;86582;-68
2021/10/31 20:13:27;;;;;;;38.53;35.60;;;;;;;12.11;100.00;99178.66;1916262;74;39639;-69
2021/10/31 20:18:52;;;;;;;39.10;35.83;;;;;;;12.15;100.00;99176.84;1901919;75;86393;-65
2021/10/31 20:24:15;;;;;;;40.10;37.07;;;;;;;12.14;100.00;99167.45;1880843;74;39506;-68
2021/10/31 20:29:40;;;;;;;40.00;37.20;;;;;;;12.09;100.00;99160.11;1886065;74;39609;-66
2021/10/31 20:35:06;;;;;;;38.47;35.10;;;;;;;12.15;100.00;99151.00;1867742;76;86533;-68
2021/10/31 20:40:32;;;;;;;37.73;34.93;;;;;;;12.12;100.00;99159.43;1915417;74;39814;-70
2021/10/31 20:46:00;;;;;;;33.60;31.50;;;;;;;12.08;100.00;99159.05;1903481;74;86585;-66
2021/10/31 20:51:23;;;;;;;39.47;36.63;;;;;;;12.08;100.00;99157.66;1916682;74;40266;-67
2021/10/31 20:56:50;;;;;;;41.30;38.23;;;;;;;12.08;100.00;99158.47;1901926;75;85984;-68
2021/10/31 21:02:18;;;;;;;40.97;38.30;;;;;;;12.00;100.00;99164.09;1892250;74;39769;-69
2021/10/31 21:07:42;;;;;;;40.97;38.17;;;;;;;12.03;100.00;99168.97;1913219;74;40385;-70
2021/10/31 21:13:08;;;;;;;41.27;38.77;;;;;;;12.05;100.00;99173.64;1887587;74;85729;-71
2021/10/31 21:18:32;;;;;;;44.20;41.30;;;;;;;12.01;100.00;99179.06;1915056;74;39540;-69
2021/10/31 21:23:59;;;;;;;40.97;38.57;;;;;;;11.90;100.00;99183.36;1891269;74;85881;-68
2021/10/31 21:29:23;;;;;;;41.87;39.27;;;;;;;11.90;100.00;99192.28;1871654;74;40172;-69
2021/10/31 21:34:53;;;;;;;40.33;38.07;;;;;;;11.84;100.00;99185.53;1901681;75;86400;-70
2021/10/31 21:40:15;;;;;;;41.57;39.17;;;;;;;11.77;100.00;99178.83;1919136;74;39681;-68
2021/10/31 21:45:40;;;;;;;43.03;40.43;;;;;;;11.83;100.00;99179.72;1885776;74;39604;-69
2021/10/31 21:51:04;;;;;;;41.37;38.73;;;;;;;11.89;100.00;99187.89;1951429;71;86149;-70
2021/10/31 21:56:29;;;;;;;41.17;38.47;;;;;;;11.83;100.00;99198.38;1915864;74;39764;-70
2021/10/31 22:02:14;;;;;;;41.53;38.97;;;;;;;11.85;100.00;99201.05;1838822;76;85718;-71
2021/10/31 22:07:39;;;;;;;40.77;38.10;;;;;;;11.76;100.00;99193.91;1913969;74;39587;-69
2021/10/31 22:13:05;;;;;;;39.90;37.00;;;;;;;11.68;100.00;99196.13;1865417;76;86389;-67
2021/10/31 22:18:29;;;;;;;41.10;38.23;;;;;;;11.51;100.00;99202.53;1888582;74;39731;-70
2021/10/31 22:23:53;;;;;;;45.93;42.97;;;;;;;11.57;100.00;99207.35;1860905;76;86607;-69
2021/10/31 22:29:16;;;;;;;41.87;39.27;;;;;;;11.62;100.00;99213.56;1918605;74;39754;-69
2021/10/31 22:34:40;;;;;;;45.30;42.40;;;;;;;11.42;100.00;99224.80;1872983;74;39469;-66
2021/10/31 22:40:06;;;;;;;41.57;38.73;;;;;;;11.52;100.00;99218.64;1862004;76;85729;-70
2021/10/31 22:45:31;;;;;;;40.27;37.37;;;;;;;11.41;100.00;99209.86;1872672;74;39651;-66
2021/10/31 22:50:56;;;;;;;40.90;38.20;;;;;;;11.46;100.00;99225.55;1902040;74;86389;-69
2021/10/31 22:56:23;;;;;;;39.70;36.93;;;;;;;11.39;100.00;99223.25;1890503;74;39445;-69
2021/10/31 23:01:50;;;;;;;38.83;36.30;;;;;;;11.29;100.00;99223.63;1901735;73;86678;-69
2021/10/31 23:07:15;;;;;;;38.53;36.00;;;;;;;11.30;100.00;99228.01;1918781;74;39482;-70